Date,TemperatureHighF,TemperatureAvgF,TemperatureLowF,DewpointHighF,DewpointAvgF,DewpointLowF,HumidityHigh,HumidityAvg,HumidityLow,PressureMaxIn,PressureMinIn,WindSpeedMaxMPH,WindSpeedAvgMPH,GustSpeedMaxMPH,PrecipitationSumIn
2013-1-1,44.4,32.9,22.7,25.1,22.1,18.4,86,67,39,30.45,30.32,3,0,5,0.01
2013-1-2,51.0,38.8,25.0,27.7,23.6,19.3,79,56,38,30.35,30.19,6,1,10,0.00
2013-1-3,46.1,36.2,28.9,33.8,26.6,19.4,85,69,47,30.39,30.18,15,4,20,0.00
2013-1-4,46.2,35.8,28.8,30.7,27.9,24.6,87,74,54,30.49,30.38,12,2,16,0.00
2013-1-5,57.0,38.3,23.4,30.1,23.5,13.0,91,60,18,30.54,30.42,2,0,5,0.00
2013-1-6,57.0,45.6,39.3,26.2,20.1,9.1,56,37,26,30.43,30.05,14,3,20,0.00
2013-1-7,56.2,43.7,30.6,27.3,20.3,7.7,71,43,15,30.06,29.88,5,1,9,0.00
2013-1-8,59.8,45.8,35.0,29.2,24.3,17.5,70,45,23,30.22,29.98,9,1,12,0.00
2013-1-9,59.9,46.5,29.8,23.0,19.0,14.2,67,36,17,30.38,30.21,6,1,10,0.00
2013-1-10,63.2,48.1,31.5,24.6,18.7,10.2,57,33,17,30.21,29.93,30,6,43,0.00
2013-1-11,50.2,38.2,25.3,30.8,15.1,5.7,76,41,19,30.10,29.91,25,3,37,0.00
2013-1-12,37.1,26.3,17.0,13.9,9.2,6.1,69,50,28,30.35,30.09,11,1,18,0.00
2013-1-13,43.8,28.3,14.6,11.1,5.3,-4.3,71,41,14,30.35,30.18,9,1,12,0.00
2013-1-14,39.1,26.0,16.4,9.1,4.2,-1.0,64,41,22,30.41,30.24,13,2,20,0.00
2013-1-15,38.4,24.7,12.8,6.0,1.0,-5.7,62,38,16,30.62,30.40,7,1,9,0.00
2013-1-16,52.6,35.5,17.0,10.9,4.6,-1.0,54,29,14,30.65,30.48,11,1,15,0.00
2013-1-17,60.6,48.2,36.1,15.3,11.5,8.0,33,23,16,30.49,30.33,10,2,13,0.00
2013-1-18,63.9,46.7,28.8,16.0,12.7,8.7,50,27,14,30.42,30.27,10,3,13,0.00
2013-1-19,69.1,50.7,30.9,29.5,22.4,11.3,64,36,16,30.38,30.23,6,0,8,0.00
2013-1-20,69.9,54.2,35.9,34.3,28.2,22.5,61,38,24,30.30,30.10,4,0,7,0.00
2013-1-21,70.3,54.0,42.2,35.6,30.9,27.7,64,43,25,30.21,30.10,5,0,8,0.00
2013-1-22,70.9,54.5,38.2,35.1,29.4,23.4,71,42,18,30.30,30.20,5,0,7,0.00
2013-1-23,72.1,55.0,37.4,32.3,29.3,26.8,67,40,21,30.34,30.22,6,0,9,0.00
2013-1-24,68.1,56.6,48.8,41.7,36.9,31.8,62,49,29,30.32,30.22,5,0,9,0.00
2013-1-25,70.2,59.0,47.1,48.2,42.0,39.3,76,55,36,30.29,30.05,9,1,14,0.00
2013-1-26,63.6,56.5,48.6,51.6,46.1,39.2,94,70,43,30.06,29.93,18,4,24,0.25
2013-1-27,61.1,52.2,46.0,48.5,43.4,37.2,96,74,46,30.09,30.02,14,3,20,0.12
2013-1-28,52.2,46.4,33.2,42.1,35.9,24.2,93,68,46,30.05,29.95,19,6,31,0.18
2013-1-29,43.9,35.5,28.7,31.4,22.9,17.2,93,63,35,30.36,30.05,15,4,22,0.03
2013-1-30,50.2,38.1,27.2,23.8,18.4,9.2,76,48,21,30.53,30.36,7,1,13,0.00
2013-1-31,58.9,43.2,30.6,30.5,23.4,17.7,70,48,25,30.43,30.29,4,0,6,0.00